sensor_id;sensor_type;location;lat;lon;timestamp;P1;durP1;ratioP1;P2;durP2;ratioP2
29854;SDS011;16733;48.738;9.106;2024-03-02T00:01:35;6.13;;;2.97;;
29854;SDS011;16733;48.738;9.106;2024-03-02T00:04:02;11.13;;;2.90;;
29854;SDS011;16733;48.738;9.106;2024-03-02T00:06:28;4.45;;;2.88;;
29854;SDS011;16733;48.738;9.106;2024-03-02T00:08:56;6.78;;;3.72;;
29854;SDS011;16733;48.738;9.106;2024-03-02T00:11:24;6.07;;;3.25;;
29854;SDS011;16733;48.738;9.106;2024-03-02T00:13:52;4.53;;;2.45;;
29854;SDS011;16733;48.738;9.106;2024-03-02T00:16:19;4.70;;;2.75;;
29854;SDS011;16733;48.738;9.106;2024-03-02T00:18:45;7.43;;;3.05;;
29854;SDS011;16733;48.738;9.106;2024-03-02T00:21:11;5.03;;;2.65;;
29854;SDS011;16733;48.738;9.106;2024-03-02T00:23:39;5.93;;;3.13;;
29854;SDS011;16733;48.738;9.106;2024-03-02T00:26:06;4.10;;;3.10;;
29854;SDS011;16733;48.738;9.106;2024-03-02T00:28:34;3.35;;;2.60;;
29854;SDS011;16733;48.738;9.106;2024-03-02T00:33:27;8.43;;;3.58;;
29854;SDS011;16733;48.738;9.106;2024-03-02T00:35:53;9.30;;;3.00;;
29854;SDS011;16733;48.738;9.106;2024-03-02T00:38:19;5.07;;;2.78;;
29854;SDS011;16733;48.738;9.106;2024-03-02T00:40:45;6.45;;;3.13;;
29854;SDS011;16733;48.738;9.106;2024-03-02T00:45:56;7.53;;;3.22;;
29854;SDS011;16733;48.738;9.106;2024-03-02T00:48:22;5.00;;;3.17;;
29854;SDS011;16733;48.738;9.106;2024-03-02T00:50:52;4.90;;;2.85;;
29854;SDS011;16733;48.738;9.106;2024-03-02T00:53:18;4.95;;;3.25;;
29854;SDS011;16733;48.738;9.106;2024-03-02T00:55:49;7.35;;;3.13;;
29854;SDS011;16733;48.738;9.106;2024-03-02T00:58:15;7.22;;;2.67;;
29854;SDS011;16733;48.738;9.106;2024-03-02T01:00:41;3.90;;;2.67;;
29854;SDS011;16733;48.738;9.106;2024-03-02T01:03:07;5.20;;;3.30;;
29854;SDS011;16733;48.738;9.106;2024-03-02T01:05:33;3.47;;;2.25;;
29854;SDS011;16733;48.738;9.106;2024-03-02T01:08:00;6.10;;;3.13;;
29854;SDS011;16733;48.738;9.106;2024-03-02T01:10:26;6.20;;;3.50;;
29854;SDS011;16733;48.738;9.106;2024-03-02T01:12:52;6.53;;;2.72;;
29854;SDS011;16733;48.738;9.106;2024-03-02T01:15:18;7.40;;;2.95;;
29854;SDS011;16733;48.738;9.106;2024-03-02T01:17:44;6.32;;;3.20;;
29854;SDS011;16733;48.738;9.106;2024-03-02T01:20:11;5.03;;;3.58;;
29854;SDS011;16733;48.738;9.106;2024-03-02T01:22:37;7.57;;;3.38;;
29854;SDS011;16733;48.738;9.106;2024-03-02T01:25:03;8.10;;;4.47;;
29854;SDS011;16733;48.738;9.106;2024-03-02T01:27:29;6.97;;;3.22;;
29854;SDS011;16733;48.738;9.106;2024-03-02T01:29:55;4.10;;;2.83;;
29854;SDS011;16733;48.738;9.106;2024-03-02T01:32:21;5.57;;;3.13;;
29854;SDS011;16733;48.738;9.106;2024-03-02T01:34:47;6.95;;;2.90;;
29854;SDS011;16733;48.738;9.106;2024-03-02T01:37:13;6.32;;;3.53;;
29854;SDS011;16733;48.738;9.106;2024-03-02T01:39:39;6.53;;;4.05;;
29854;SDS011;16733;48.738;9.106;2024-03-02T01:42:05;5.85;;;3.22;;
29854;SDS011;16733;48.738;9.106;2024-03-02T01:44:31;5.72;;;3.05;;
29854;SDS011;16733;48.738;9.106;2024-03-02T01:46:57;6.95;;;3.75;;
29854;SDS011;16733;48.738;9.106;2024-03-02T01:49:23;6.38;;;3.63;;
29854;SDS011;16733;48.738;9.106;2024-03-02T01:51:49;6.57;;;3.30;;
29854;SDS011;16733;48.738;9.106;2024-03-02T01:54:15;9.40;;;3.70;;
29854;SDS011;16733;48.738;9.106;2024-03-02T01:56:41;8.90;;;4.47;;
29854;SDS011;16733;48.738;9.106;2024-03-02T01:59:07;4.93;;;2.80;;
29854;SDS011;16733;48.738;9.106;2024-03-02T02:01:33;8.52;;;3.60;;
29854;SDS011;16733;48.738;9.106;2024-03-02T02:03:59;6.93;;;3.58;;
29854;SDS011;16733;48.738;9.106;2024-03-02T02:06:25;6.20;;;3.17;;
29854;SDS011;16733;48.738;9.106;2024-03-02T02:08:51;6.43;;;3.53;;
29854;SDS011;16733;48.738;9.106;2024-03-02T02:11:17;4.88;;;3.10;;
29854;SDS011;16733;48.738;9.106;2024-03-02T02:13:43;9.43;;;3.75;;
29854;SDS011;16733;48.738;9.106;2024-03-02T02:16:09;7.80;;;3.33;;
29854;SDS011;16733;48.738;9.106;2024-03-02T02:18:35;8.27;;;4.05;;
29854;SDS011;16733;48.738;9.106;2024-03-02T02:21:04;7.00;;;3.70;;
29854;SDS011;16733;48.738;9.106;2024-03-02T02:23:30;7.15;;;3.63;;
29854;SDS011;16733;48.738;9.106;2024-03-02T02:25:56;8.00;;;4.03;;
29854;SDS011;16733;48.738;9.106;2024-03-02T02:28:22;8.50;;;4.10;;
29854;SDS011;16733;48.738;9.106;2024-03-02T02:30:48;10.50;;;4.45;;
29854;SDS011;16733;48.738;9.106;2024-03-02T02:33:14;7.07;;;3.97;;
29854;SDS011;16733;48.738;9.106;2024-03-02T02:35:40;8.65;;;3.97;;
29854;SDS011;16733;48.738;9.106;2024-03-02T02:38:06;7.60;;;3.55;;
29854;SDS011;16733;48.738;9.106;2024-03-02T02:40:32;6.65;;;3.50;;
29854;SDS011;16733;48.738;9.106;2024-03-02T02:42:58;6.47;;;3.88;;
29854;SDS011;16733;48.738;9.106;2024-03-02T02:45:24;7.22;;;3.60;;
29854;SDS011;16733;48.738;9.106;2024-03-02T02:47:50;10.80;;;4.63;;
29854;SDS011;16733;48.738;9.106;2024-03-02T02:50:16;7.25;;;4.57;;
29854;SDS011;16733;48.738;9.106;2024-03-02T02:52:42;8.18;;;3.38;;
29854;SDS011;16733;48.738;9.106;2024-03-02T02:55:09;6.07;;;3.25;;
29854;SDS011;16733;48.738;9.106;2024-03-02T02:57:36;7.72;;;3.50;;
29854;SDS011;16733;48.738;9.106;2024-03-02T03:00:07;6.65;;;3.72;;
29854;SDS011;16733;48.738;9.106;2024-03-02T03:02:40;9.32;;;4.00;;
29854;SDS011;16733;48.738;9.106;2024-03-02T03:05:06;8.75;;;3.80;;
29854;SDS011;16733;48.738;9.106;2024-03-02T03:07:33;6.53;;;3.53;;
29854;SDS011;16733;48.738;9.106;2024-03-02T03:09:59;7.60;;;4.07;;
29854;SDS011;16733;48.738;9.106;2024-03-02T03:12:26;5.70;;;3.15;;
29854;SDS011;16733;48.738;9.106;2024-03-02T03:14:52;7.47;;;2.97;;
29854;SDS011;16733;48.738;9.106;2024-03-02T03:17:18;7.53;;;3.55;;
29854;SDS011;16733;48.738;9.106;2024-03-02T03:19:44;8.93;;;4.00;;
29854;SDS011;16733;48.738;9.106;2024-03-02T03:22:10;7.10;;;3.75;;
29854;SDS011;16733;48.738;9.106;2024-03-02T03:24:36;6.95;;;3.08;;
29854;SDS011;16733;48.738;9.106;2024-03-02T03:27:02;6.43;;;3.50;;
29854;SDS011;16733;48.738;9.106;2024-03-02T03:29:28;6.05;;;3.42;;
29854;SDS011;16733;48.738;9.106;2024-03-02T03:31:54;6.30;;;2.97;;
29854;SDS011;16733;48.738;9.106;2024-03-02T03:34:20;8.15;;;3.40;;
29854;SDS011;16733;48.738;9.106;2024-03-02T03:36:46;5.38;;;3.25;;
29854;SDS011;16733;48.738;9.106;2024-03-02T03:39:12;10.43;;;4.00;;
29854;SDS011;16733;48.738;9.106;2024-03-02T03:41:38;9.05;;;3.83;;
29854;SDS011;16733;48.738;9.106;2024-03-02T03:44:04;5.03;;;3.45;;
29854;SDS011;16733;48.738;9.106;2024-03-02T03:46:30;7.72;;;3.70;;
29854;SDS011;16733;48.738;9.106;2024-03-02T03:48:56;8.15;;;3.25;;
29854;SDS011;16733;48.738;9.106;2024-03-02T03:51:22;14.25;;;5.28;;
29854;SDS011;16733;48.738;9.106;2024-03-02T03:53:48;6.93;;;3.75;;
29854;SDS011;16733;48.738;9.106;2024-03-02T03:56:14;9.43;;;4.00;;
29854;SDS011;16733;48.738;9.106;2024-03-02T03:58:40;8.00;;;3.65;;
29854;SDS011;16733;48.738;9.106;2024-03-02T04:01:06;9.32;;;4.43;;
29854;SDS011;16733;48.738;9.106;2024-03-02T04:03:33;6.75;;;3.67;;
29854;SDS011;16733;48.738;9.106;2024-03-02T04:05:59;5.70;;;3.25;;
29854;SDS011;16733;48.738;9.106;2024-03-02T04:08:25;7.60;;;3.00;;
29854;SDS011;16733;48.738;9.106;2024-03-02T04:10:51;6.35;;;3.70;;
29854;SDS011;16733;48.738;9.106;2024-03-02T04:13:17;10.35;;;3.83;;
29854;SDS011;16733;48.738;9.106;2024-03-02T04:15:43;11.60;;;3.85;;
29854;SDS011;16733;48.738;9.106;2024-03-02T04:18:09;6.53;;;3.25;;
29854;SDS011;16733;48.738;9.106;2024-03-02T04:20:35;7.97;;;3.97;;
29854;SDS011;16733;48.738;9.106;2024-03-02T04:23:01;8.63;;;3.92;;
29854;SDS011;16733;48.738;9.106;2024-03-02T04:25:27;10.32;;;4.10;;
29854;SDS011;16733;48.738;9.106;2024-03-02T04:27:53;8.20;;;3.63;;
29854;SDS011;16733;48.738;9.106;2024-03-02T04:30:19;5.85;;;3.65;;
29854;SDS011;16733;48.738;9.106;2024-03-02T04:32:45;9.32;;;4.03;;
29854;SDS011;16733;48.738;9.106;2024-03-02T04:35:11;7.57;;;3.72;;
29854;SDS011;16733;48.738;9.106;2024-03-02T04:37:38;8.38;;;3.78;;
29854;SDS011;16733;48.738;9.106;2024-03-02T04:40:04;6.68;;;3.97;;
29854;SDS011;16733;48.738;9.106;2024-03-02T04:42:33;8.85;;;3.15;;
29854;SDS011;16733;48.738;9.106;2024-03-02T04:44:59;8.65;;;4.07;;
29854;SDS011;16733;48.738;9.106;2024-03-02T04:47:25;9.27;;;4.15;;
29854;SDS011;16733;48.738;9.106;2024-03-02T04:49:51;12.68;;;3.65;;
29854;SDS011;16733;48.738;9.106;2024-03-02T04:52:17;7.85;;;3.92;;
29854;SDS011;16733;48.738;9.106;2024-03-02T04:54:44;9.52;;;3.65;;
29854;SDS011;16733;48.738;9.106;2024-03-02T04:57:28;6.43;;;3.63;;
29854;SDS011;16733;48.738;9.106;2024-03-02T04:59:54;6.32;;;3.40;;
29854;SDS011;16733;48.738;9.106;2024-03-02T05:02:20;9.57;;;4.03;;
29854;SDS011;16733;48.738;9.106;2024-03-02T05:04:46;7.28;;;3.70;;
29854;SDS011;16733;48.738;9.106;2024-03-02T05:07:13;7.55;;;3.53;;
29854;SDS011;16733;48.738;9.106;2024-03-02T05:09:39;8.93;;;4.15;;
29854;SDS011;16733;48.738;9.106;2024-03-02T05:12:05;9.10;;;4.45;;
29854;SDS011;16733;48.738;9.106;2024-03-02T05:14:54;9.52;;;3.50;;
29854;SDS011;16733;48.738;9.106;2024-03-02T05:17:20;4.88;;;3.03;;
29854;SDS011;16733;48.738;9.106;2024-03-02T05:19:46;6.43;;;3.35;;
29854;SDS011;16733;48.738;9.106;2024-03-02T05:22:12;5.72;;;3.47;;
29854;SDS011;16733;48.738;9.106;2024-03-02T05:24:38;7.80;;;3.88;;
29854;SDS011;16733;48.738;9.106;2024-03-02T05:27:04;5.82;;;3.50;;
29854;SDS011;16733;48.738;9.106;2024-03-02T05:29:31;10.82;;;4.82;;
29854;SDS011;16733;48.738;9.106;2024-03-02T05:31:57;9.30;;;4.00;;
29854;SDS011;16733;48.738;9.106;2024-03-02T05:34:23;11.48;;;4.05;;
29854;SDS011;16733;48.738;9.106;2024-03-02T05:36:49;7.93;;;3.67;;
29854;SDS011;16733;48.738;9.106;2024-03-02T05:39:15;10.13;;;4.40;;
29854;SDS011;16733;48.738;9.106;2024-03-02T05:41:41;9.63;;;3.65;;
29854;SDS011;16733;48.738;9.106;2024-03-02T05:44:07;8.75;;;4.40;;
29854;SDS011;16733;48.738;9.106;2024-03-02T05:46:33;8.75;;;3.33;;
29854;SDS011;16733;48.738;9.106;2024-03-02T05:49:00;4.90;;;2.85;;
29854;SDS011;16733;48.738;9.106;2024-03-02T05:51:26;9.75;;;3.75;;
29854;SDS011;16733;48.738;9.106;2024-03-02T05:53:52;6.68;;;3.30;;
29854;SDS011;16733;48.738;9.106;2024-03-02T05:56:18;9.73;;;3.20;;
29854;SDS011;16733;48.738;9.106;2024-03-02T05:58:44;8.65;;;4.00;;
29854;SDS011;16733;48.738;9.106;2024-03-02T06:01:42;8.52;;;3.70;;
29854;SDS011;16733;48.738;9.106;2024-03-02T06:04:09;11.38;;;4.63;;
29854;SDS011;16733;48.738;9.106;2024-03-02T06:06:38;5.90;;;3.20;;
29854;SDS011;16733;48.738;9.106;2024-03-02T06:09:04;9.40;;;4.30;;
29854;SDS011;16733;48.738;9.106;2024-03-02T06:11:35;5.72;;;3.13;;
29854;SDS011;16733;48.738;9.106;2024-03-02T06:14:02;6.70;;;2.92;;
29854;SDS011;16733;48.738;9.106;2024-03-02T06:16:28;5.88;;;3.25;;
29854;SDS011;16733;48.738;9.106;2024-03-02T06:18:55;10.70;;;4.63;;
29854;SDS011;16733;48.738;9.106;2024-03-02T06:21:22;6.85;;;3.05;;
29854;SDS011;16733;48.738;9.106;2024-03-02T06:23:48;7.05;;;4.00;;
29854;SDS011;16733;48.738;9.106;2024-03-02T06:26:14;8.00;;;4.03;;
29854;SDS011;16733;48.738;9.106;2024-03-02T06:28:40;7.15;;;3.90;;
29854;SDS011;16733;48.738;9.106;2024-03-02T06:31:06;5.18;;;3.40;;
29854;SDS011;16733;48.738;9.106;2024-03-02T06:33:32;10.55;;;4.03;;
29854;SDS011;16733;48.738;9.106;2024-03-02T06:35:58;6.10;;;3.75;;
29854;SDS011;16733;48.738;9.106;2024-03-02T06:38:24;7.78;;;3.78;;
29854;SDS011;16733;48.738;9.106;2024-03-02T06:40:51;6.47;;;3.75;;
29854;SDS011;16733;48.738;9.106;2024-03-02T06:43:17;9.38;;;4.43;;
29854;SDS011;16733;48.738;9.106;2024-03-02T06:45:43;5.63;;;3.47;;
29854;SDS011;16733;48.738;9.106;2024-03-02T06:48:09;6.25;;;3.45;;
29854;SDS011;16733;48.738;9.106;2024-03-02T06:50:35;10.05;;;3.55;;
29854;SDS011;16733;48.738;9.106;2024-03-02T06:53:01;5.70;;;3.47;;
29854;SDS011;16733;48.738;9.106;2024-03-02T06:55:29;8.10;;;3.92;;
29854;SDS011;16733;48.738;9.106;2024-03-02T06:57:55;11.93;;;3.50;;
29854;SDS011;16733;48.738;9.106;2024-03-02T07:00:21;6.47;;;3.38;;
29854;SDS011;16733;48.738;9.106;2024-03-02T07:02:47;7.40;;;4.18;;
29854;SDS011;16733;48.738;9.106;2024-03-02T07:05:14;9.70;;;4.00;;
29854;SDS011;16733;48.738;9.106;2024-03-02T07:07:40;6.00;;;3.42;;
29854;SDS011;16733;48.738;9.106;2024-03-02T07:10:06;7.40;;;3.78;;
29854;SDS011;16733;48.738;9.106;2024-03-02T07:12:32;7.43;;;3.65;;
29854;SDS011;16733;48.738;9.106;2024-03-02T07:14:58;8.30;;;4.28;;
29854;SDS011;16733;48.738;9.106;2024-03-02T07:17:27;8.95;;;4.15;;
29854;SDS011;16733;48.738;9.106;2024-03-02T07:19:53;13.77;;;3.38;;
29854;SDS011;16733;48.738;9.106;2024-03-02T07:22:19;5.65;;;3.45;;
29854;SDS011;16733;48.738;9.106;2024-03-02T07:24:45;6.72;;;4.15;;
29854;SDS011;16733;48.738;9.106;2024-03-02T07:27:11;7.03;;;3.17;;
29854;SDS011;16733;48.738;9.106;2024-03-02T07:29:38;5.47;;;3.17;;
29854;SDS011;16733;48.738;9.106;2024-03-02T07:32:05;6.22;;;2.92;;
29854;SDS011;16733;48.738;9.106;2024-03-02T07:34:31;7.50;;;3.42;;
29854;SDS011;16733;48.738;9.106;2024-03-02T07:36:57;6.97;;;3.55;;
29854;SDS011;16733;48.738;9.106;2024-03-02T07:39:23;5.20;;;2.95;;
29854;SDS011;16733;48.738;9.106;2024-03-02T07:41:49;6.68;;;3.25;;
29854;SDS011;16733;48.738;9.106;2024-03-02T07:44:16;8.88;;;3.67;;
29854;SDS011;16733;48.738;9.106;2024-03-02T07:46:44;5.30;;;3.08;;
29854;SDS011;16733;48.738;9.106;2024-03-02T07:49:11;6.38;;;3.45;;
29854;SDS011;16733;48.738;9.106;2024-03-02T07:51:38;4.85;;;3.22;;
29854;SDS011;16733;48.738;9.106;2024-03-02T07:54:04;4.65;;;2.97;;
29854;SDS011;16733;48.738;9.106;2024-03-02T07:56:30;4.18;;;2.60;;
29854;SDS011;16733;48.738;9.106;2024-03-02T07:58:56;5.13;;;2.83;;
29854;SDS011;16733;48.738;9.106;2024-03-02T08:01:29;5.85;;;2.88;;
29854;SDS011;16733;48.738;9.106;2024-03-02T08:03:56;5.05;;;3.15;;
29854;SDS011;16733;48.738;9.106;2024-03-02T08:06:23;7.20;;;3.00;;
29854;SDS011;16733;48.738;9.106;2024-03-02T08:08:52;7.78;;;2.92;;
29854;SDS011;16733;48.738;9.106;2024-03-02T08:11:18;5.18;;;2.83;;
29854;SDS011;16733;48.738;9.106;2024-03-02T08:13:44;4.63;;;2.72;;
29854;SDS011;16733;48.738;9.106;2024-03-02T08:16:10;7.90;;;2.92;;
29854;SDS011;16733;48.738;9.106;2024-03-02T08:18:36;10.38;;;3.72;;
29854;SDS011;16733;48.738;9.106;2024-03-02T08:21:02;7.55;;;3.25;;
29854;SDS011;16733;48.738;9.106;2024-03-02T08:23:28;4.40;;;3.03;;
29854;SDS011;16733;48.738;9.106;2024-03-02T08:25:55;5.38;;;2.67;;
29854;SDS011;16733;48.738;9.106;2024-03-02T08:28:21;3.50;;;2.42;;
29854;SDS011;16733;48.738;9.106;2024-03-02T08:30:47;6.45;;;3.03;;
29854;SDS011;16733;48.738;9.106;2024-03-02T08:33:13;5.85;;;3.30;;
29854;SDS011;16733;48.738;9.106;2024-03-02T08:35:39;7.57;;;3.15;;
29854;SDS011;16733;48.738;9.106;2024-03-02T08:38:05;6.03;;;3.20;;
29854;SDS011;16733;48.738;9.106;2024-03-02T08:40:31;5.55;;;2.75;;
29854;SDS011;16733;48.738;9.106;2024-03-02T08:42:57;8.48;;;3.28;;
29854;SDS011;16733;48.738;9.106;2024-03-02T08:45:23;6.55;;;3.13;;
29854;SDS011;16733;48.738;9.106;2024-03-02T08:47:49;8.68;;;2.97;;
29854;SDS011;16733;48.738;9.106;2024-03-02T08:50:15;7.20;;;3.25;;
29854;SDS011;16733;48.738;9.106;2024-03-02T08:52:41;5.15;;;2.70;;
29854;SDS011;16733;48.738;9.106;2024-03-02T08:55:08;6.10;;;2.50;;
29854;SDS011;16733;48.738;9.106;2024-03-02T08:57:36;5.03;;;2.75;;
29854;SDS011;16733;48.738;9.106;2024-03-02T09:00:02;3.63;;;2.25;;
29854;SDS011;16733;48.738;9.106;2024-03-02T09:02:30;7.28;;;2.83;;
29854;SDS011;16733;48.738;9.106;2024-03-02T09:04:56;4.20;;;2.15;;
29854;SDS011;16733;48.738;9.106;2024-03-02T09:07:23;6.35;;;2.58;;
29854;SDS011;16733;48.738;9.106;2024-03-02T09:09:49;4.10;;;2.25;;
29854;SDS011;16733;48.738;9.106;2024-03-02T09:12:15;4.15;;;2.28;;
29854;SDS011;16733;48.738;9.106;2024-03-02T09:14:41;4.63;;;2.30;;
29854;SDS011;16733;48.738;9.106;2024-03-02T09:17:07;8.45;;;2.45;;
29854;SDS011;16733;48.738;9.106;2024-03-02T09:19:35;6.72;;;2.72;;
29854;SDS011;16733;48.738;9.106;2024-03-02T09:22:01;3.10;;;1.88;;
29854;SDS011;16733;48.738;9.106;2024-03-02T09:24:28;11.32;;;2.58;;
29854;SDS011;16733;48.738;9.106;2024-03-02T09:26:54;5.35;;;2.75;;
29854;SDS011;16733;48.738;9.106;2024-03-02T09:29:20;7.25;;;3.13;;
29854;SDS011;16733;48.738;9.106;2024-03-02T09:31:46;4.20;;;2.42;;
29854;SDS011;16733;48.738;9.106;2024-03-02T09:34:12;5.30;;;2.92;;
29854;SDS011;16733;48.738;9.106;2024-03-02T09:36:39;3.30;;;1.70;;
29854;SDS011;16733;48.738;9.106;2024-03-02T09:39:07;7.47;;;2.38;;
29854;SDS011;16733;48.738;9.106;2024-03-02T09:41:34;4.53;;;1.88;;
29854;SDS011;16733;48.738;9.106;2024-03-02T09:44:00;2.72;;;1.67;;
29854;SDS011;16733;48.738;9.106;2024-03-02T09:46:27;3.63;;;2.25;;
29854;SDS011;16733;48.738;9.106;2024-03-02T09:48:53;8.18;;;2.20;;
29854;SDS011;16733;48.738;9.106;2024-03-02T09:51:19;3.80;;;1.70;;
29854;SDS011;16733;48.738;9.106;2024-03-02T09:53:45;2.42;;;1.90;;
29854;SDS011;16733;48.738;9.106;2024-03-02T09:56:11;2.63;;;1.63;;
29854;SDS011;16733;48.738;9.106;2024-03-02T09:58:38;1.98;;;1.30;;
29854;SDS011;16733;48.738;9.106;2024-03-02T10:01:07;3.40;;;1.70;;
29854;SDS011;16733;48.738;9.106;2024-03-02T10:03:35;3.58;;;1.67;;
29854;SDS011;16733;48.738;9.106;2024-03-02T10:08:47;6.43;;;2.17;;
29854;SDS011;16733;48.738;9.106;2024-03-02T10:14:11;3.47;;;1.80;;
29854;SDS011;16733;48.738;9.106;2024-03-02T10:16:38;3.15;;;1.95;;
29854;SDS011;16733;48.738;9.106;2024-03-02T10:19:20;2.55;;;1.42;;
29854;SDS011;16733;48.738;9.106;2024-03-02T10:21:47;3.20;;;1.45;;
29854;SDS011;16733;48.738;9.106;2024-03-02T10:24:14;3.13;;;1.30;;
29854;SDS011;16733;48.738;9.106;2024-03-02T10:26:40;1.85;;;1.15;;
29854;SDS011;16733;48.738;9.106;2024-03-02T10:29:07;3.35;;;1.10;;
29854;SDS011;16733;48.738;9.106;2024-03-02T10:31:35;0.75;;;0.70;;
29854;SDS011;16733;48.738;9.106;2024-03-02T10:34:02;1.60;;;0.98;;
29854;SDS011;16733;48.738;9.106;2024-03-02T10:36:29;0.63;;;0.60;;
29854;SDS011;16733;48.738;9.106;2024-03-02T10:38:58;1.35;;;0.90;;
29854;SDS011;16733;48.738;9.106;2024-03-02T10:41:24;2.85;;;0.85;;
29854;SDS011;16733;48.738;9.106;2024-03-02T10:43:52;0.57;;;0.57;;
29854;SDS011;16733;48.738;9.106;2024-03-02T10:46:24;1.77;;;1.20;;
29854;SDS011;16733;48.738;9.106;2024-03-02T10:48:53;6.10;;;1.25;;
29854;SDS011;16733;48.738;9.106;2024-03-02T10:51:19;2.10;;;1.27;;
29854;SDS011;16733;48.738;9.106;2024-03-02T10:53:45;2.55;;;1.10;;
29854;SDS011;16733;48.738;9.106;2024-03-02T10:56:11;2.20;;;1.02;;
29854;SDS011;16733;48.738;9.106;2024-03-02T10:58:40;1.50;;;0.80;;
29854;SDS011;16733;48.738;9.106;2024-03-02T11:01:06;0.88;;;0.70;;
29854;SDS011;16733;48.738;9.106;2024-03-02T11:03:35;0.90;;;0.77;;
29854;SDS011;16733;48.738;9.106;2024-03-02T11:06:02;1.30;;;1.00;;
29854;SDS011;16733;48.738;9.106;2024-03-02T11:08:31;1.85;;;1.20;;
29854;SDS011;16733;48.738;9.106;2024-03-02T11:10:57;1.95;;;1.25;;
29854;SDS011;16733;48.738;9.106;2024-03-02T11:13:27;1.60;;;1.10;;
29854;SDS011;16733;48.738;9.106;2024-03-02T11:15:59;2.25;;;1.00;;
29854;SDS011;16733;48.738;9.106;2024-03-02T11:18:25;3.47;;;1.13;;
29854;SDS011;16733;48.738;9.106;2024-03-02T11:20:52;1.10;;;0.90;;
29854;SDS011;16733;48.738;9.106;2024-03-02T11:23:19;1.83;;;1.10;;
29854;SDS011;16733;48.738;9.106;2024-03-02T11:26:16;1.77;;;1.10;;
29854;SDS011;16733;48.738;9.106;2024-03-02T11:28:43;2.05;;;1.25;;
29854;SDS011;16733;48.738;9.106;2024-03-02T11:31:09;1.77;;;1.33;;
29854;SDS011;16733;48.738;9.106;2024-03-02T11:33:35;2.60;;;1.55;;
29854;SDS011;16733;48.738;9.106;2024-03-02T11:36:01;2.20;;;1.17;;
29854;SDS011;16733;48.738;9.106;2024-03-02T11:38:31;1.27;;;0.82;;
29854;SDS011;16733;48.738;9.106;2024-03-02T11:40:59;8.30;;;0.85;;
29854;SDS011;16733;48.738;9.106;2024-03-02T11:43:25;1.90;;;1.00;;
29854;SDS011;16733;48.738;9.106;2024-03-02T11:46:03;2.95;;;1.13;;
29854;SDS011;16733;48.738;9.106;2024-03-02T11:48:34;2.92;;;1.02;;
29854;SDS011;16733;48.738;9.106;2024-03-02T11:51:00;2.60;;;1.08;;
29854;SDS011;16733;48.738;9.106;2024-03-02T11:53:27;1.30;;;0.85;;
29854;SDS011;16733;48.738;9.106;2024-03-02T11:55:59;1.35;;;0.70;;
29854;SDS011;16733;48.738;9.106;2024-03-02T11:58:27;4.60;;;0.75;;
29854;SDS011;16733;48.738;9.106;2024-03-02T12:00:54;4.80;;;1.00;;
29854;SDS011;16733;48.738;9.106;2024-03-02T12:03:21;0.88;;;0.80;;
29854;SDS011;16733;48.738;9.106;2024-03-02T12:05:50;2.33;;;0.90;;
29854;SDS011;16733;48.738;9.106;2024-03-02T12:08:17;2.97;;;1.10;;
29854;SDS011;16733;48.738;9.106;2024-03-02T12:10:43;1.05;;;0.85;;
29854;SDS011;16733;48.738;9.106;2024-03-02T12:13:21;2.90;;;0.70;;
29854;SDS011;16733;48.738;9.106;2024-03-02T12:15:47;1.80;;;0.85;;
29854;SDS011;16733;48.738;9.106;2024-03-02T12:18:13;2.00;;;0.98;;
29854;SDS011;16733;48.738;9.106;2024-03-02T12:20:39;2.25;;;1.27;;
29854;SDS011;16733;48.738;9.106;2024-03-02T12:23:05;1.52;;;1.00;;
29854;SDS011;16733;48.738;9.106;2024-03-02T12:25:31;1.38;;;0.80;;
29854;SDS011;16733;48.738;9.106;2024-03-02T12:28:01;0.98;;;0.75;;
29854;SDS011;16733;48.738;9.106;2024-03-02T12:30:29;1.00;;;0.75;;
29854;SDS011;16733;48.738;9.106;2024-03-02T12:32:55;1.13;;;0.77;;
29854;SDS011;16733;48.738;9.106;2024-03-02T12:35:21;1.17;;;0.80;;
29854;SDS011;16733;48.738;9.106;2024-03-02T12:37:48;2.13;;;0.88;;
29854;SDS011;16733;48.738;9.106;2024-03-02T12:40:15;1.95;;;1.27;;
29854;SDS011;16733;48.738;9.106;2024-03-02T12:42:43;1.42;;;1.10;;
29854;SDS011;16733;48.738;9.106;2024-03-02T12:45:09;2.20;;;1.30;;
29854;SDS011;16733;48.738;9.106;2024-03-02T12:47:35;1.92;;;1.00;;
29854;SDS011;16733;48.738;9.106;2024-03-02T12:50:02;1.00;;;0.80;;
29854;SDS011;16733;48.738;9.106;2024-03-02T12:52:29;1.10;;;0.93;;
29854;SDS011;16733;48.738;9.106;2024-03-02T12:54:55;1.27;;;1.00;;
29854;SDS011;16733;48.738;9.106;2024-03-02T12:57:26;1.58;;;0.82;;
29854;SDS011;16733;48.738;9.106;2024-03-02T12:59:54;1.45;;;0.95;;
29854;SDS011;16733;48.738;9.106;2024-03-02T13:02:22;1.60;;;1.20;;
29854;SDS011;16733;48.738;9.106;2024-03-02T13:04:54;2.60;;;1.08;;
29854;SDS011;16733;48.738;9.106;2024-03-02T13:09:50;1.48;;;1.10;;
29854;SDS011;16733;48.738;9.106;2024-03-02T13:12:19;2.42;;;0.80;;
29854;SDS011;16733;48.738;9.106;2024-03-02T13:14:47;3.03;;;1.10;;
29854;SDS011;16733;48.738;9.106;2024-03-02T13:17:14;5.35;;;1.10;;
29854;SDS011;16733;48.738;9.106;2024-03-02T13:19:43;3.03;;;1.23;;
29854;SDS011;16733;48.738;9.106;2024-03-02T13:22:09;1.50;;;1.00;;
29854;SDS011;16733;48.738;9.106;2024-03-02T13:24:35;3.92;;;1.20;;
29854;SDS011;16733;48.738;9.106;2024-03-02T13:27:01;2.45;;;1.45;;
29854;SDS011;16733;48.738;9.106;2024-03-02T13:29:29;1.02;;;0.90;;
29854;SDS011;16733;48.738;9.106;2024-03-02T13:31:55;2.35;;;1.75;;
29854;SDS011;16733;48.738;9.106;2024-03-02T13:34:22;3.38;;;2.10;;
29854;SDS011;16733;48.738;9.106;2024-03-02T13:36:48;1.85;;;1.10;;
29854;SDS011;16733;48.738;9.106;2024-03-02T13:39:14;1.77;;;0.90;;
29854;SDS011;16733;48.738;9.106;2024-03-02T13:41:40;1.98;;;1.08;;
29854;SDS011;16733;48.738;9.106;2024-03-02T13:44:06;1.50;;;1.27;;
29854;SDS011;16733;48.738;9.106;2024-03-02T13:46:32;3.95;;;1.10;;
29854;SDS011;16733;48.738;9.106;2024-03-02T13:48:58;3.97;;;2.00;;
29854;SDS011;16733;48.738;9.106;2024-03-02T13:51:24;7.40;;;1.80;;
29854;SDS011;16733;48.738;9.106;2024-03-02T13:53:50;2.38;;;1.20;;
29854;SDS011;16733;48.738;9.106;2024-03-02T13:56:16;3.30;;;0.98;;
29854;SDS011;16733;48.738;9.106;2024-03-02T13:58:43;2.17;;;0.93;;
29854;SDS011;16733;48.738;9.106;2024-03-02T14:01:11;1.10;;;0.88;;
29854;SDS011;16733;48.738;9.106;2024-03-02T14:03:37;2.15;;;1.00;;
29854;SDS011;16733;48.738;9.106;2024-03-02T14:06:03;1.45;;;0.90;;
29854;SDS011;16733;48.738;9.106;2024-03-02T14:08:29;3.28;;;1.10;;
29854;SDS011;16733;48.738;9.106;2024-03-02T14:10:55;1.00;;;0.70;;
29854;SDS011;16733;48.738;9.106;2024-03-02T14:13:25;1.30;;;0.88;;
29854;SDS011;16733;48.738;9.106;2024-03-02T14:15:51;1.17;;;0.77;;
29854;SDS011;16733;48.738;9.106;2024-03-02T14:18:17;1.00;;;0.70;;
29854;SDS011;16733;48.738;9.106;2024-03-02T14:20:43;0.98;;;0.75;;
29854;SDS011;16733;48.738;9.106;2024-03-02T14:23:09;2.85;;;1.02;;
29854;SDS011;16733;48.738;9.106;2024-03-02T14:25:35;1.17;;;0.90;;
29854;SDS011;16733;48.738;9.106;2024-03-02T14:28:01;1.00;;;0.70;;
29854;SDS011;16733;48.738;9.106;2024-03-02T14:30:27;1.45;;;0.93;;
29854;SDS011;16733;48.738;9.106;2024-03-02T14:32:53;3.63;;;0.65;;
29854;SDS011;16733;48.738;9.106;2024-03-02T14:35:19;1.17;;;0.80;;
29854;SDS011;16733;48.738;9.106;2024-03-02T14:37:47;1.10;;;0.65;;
29854;SDS011;16733;48.738;9.106;2024-03-02T14:40:13;1.30;;;0.60;;
29854;SDS011;16733;48.738;9.106;2024-03-02T14:42:39;0.98;;;0.80;;
29854;SDS011;16733;48.738;9.106;2024-03-02T14:45:07;0.82;;;0.65;;
29854;SDS011;16733;48.738;9.106;2024-03-02T14:47:33;0.88;;;0.65;;
29854;SDS011;16733;48.738;9.106;2024-03-02T14:50:00;3.58;;;1.08;;
29854;SDS011;16733;48.738;9.106;2024-03-02T14:52:31;3.15;;;0.82;;
29854;SDS011;16733;48.738;9.106;2024-03-02T14:54:57;1.17;;;0.80;;
29854;SDS011;16733;48.738;9.106;2024-03-02T14:57:23;1.33;;;0.60;;
29854;SDS011;16733;48.738;9.106;2024-03-02T14:59:49;2.03;;;1.20;;